createdAt,value
2023-02-17T00:02:29.890Z,101095.50
2023-02-17T00:06:33.053Z,101101.16
2023-02-17T00:10:36.107Z,101098.66
2023-02-17T00:14:41.432Z,101087.06
2023-02-17T00:18:44.519Z,101089.78
2023-02-17T00:22:47.609Z,101094.41
2023-02-17T00:26:51.116Z,101091.88
2023-02-17T00:30:55.598Z,101079.63
2023-02-17T00:34:58.712Z,101083.22
2023-02-17T00:39:01.800Z,101073.31
2023-02-17T00:43:04.862Z,101079.19
2023-02-17T00:47:09.324Z,101081.28
2023-02-17T00:51:12.866Z,101081.28
2023-02-17T00:55:15.943Z,101082.16
2023-02-17T00:59:19.002Z,101076.88
2023-02-17T01:03:23.866Z,101079.63
2023-02-17T01:07:27.865Z,101067.81
2023-02-17T01:11:32.980Z,101072.91
2023-02-17T01:15:38.979Z,101047.59
2023-02-17T01:19:43.476Z,101047.59
2023-02-17T01:23:46.622Z,101048.00
2023-02-17T01:27:49.745Z,101053.47
2023-02-17T01:31:53.192Z,101038.31
2023-02-17T01:36:02.529Z,101026.09
2023-02-17T01:40:06.638Z,101044.63
2023-02-17T01:44:17.577Z,101038.75
2023-02-17T01:48:23.885Z,101038.31
2023-02-17T01:52:28.304Z,101034.94
2023-02-17T01:56:34.897Z,101025.69
2023-02-17T02:00:38.223Z,101013.44
2023-02-17T02:04:46.361Z,101014.72
2023-02-17T02:08:57.445Z,101015.59
2023-02-17T02:13:00.601Z,101011.34
2023-02-17T02:17:13.797Z,101005.44
2023-02-17T02:21:41.790Z,101016.63
2023-02-17T02:26:17.540Z,101006.28
2023-02-17T02:30:51.858Z,101004.16
2023-02-17T02:35:01.154Z,101007.56
2023-02-17T02:39:10.352Z,101005.88
2023-02-17T02:43:13.912Z,100997.66
2023-02-17T02:47:44.654Z,101004.16
2023-02-17T02:51:58.882Z,101003.75
2023-02-17T02:56:11.537Z,101003.75
2023-02-17T03:00:25.330Z,100981.84
2023-02-17T03:04:36.618Z,100992.81
2023-02-17T03:08:48.093Z,100998.91
2023-02-17T03:12:52.302Z,100964.78
2023-02-17T03:16:55.620Z,100962.03
2023-02-17T03:21:06.997Z,100956.56
2023-02-17T03:25:11.845Z,100970.88
2023-02-17T03:29:15.445Z,100954.88
2023-02-17T03:33:18.677Z,100959.09
2023-02-17T03:37:21.739Z,100959.94
2023-02-17T03:41:26.395Z,100956.13
2023-02-17T03:45:29.511Z,100952.34
2023-02-17T03:49:32.762Z,100951.94
2023-02-17T03:53:35.822Z,100959.53
2023-02-17T03:57:40.242Z,100955.09
2023-02-17T04:01:43.359Z,100956.13
2023-02-17T04:05:46.463Z,100975.13
2023-02-17T04:09:49.525Z,100956.78
2023-02-17T04:13:53.963Z,100969.66
2023-02-17T04:17:57.127Z,100959.94
2023-02-17T04:22:00.220Z,100961.84
2023-02-17T04:26:03.880Z,100947.28
2023-02-17T04:30:12.213Z,100964.34
2023-02-17T04:34:15.437Z,100962.66
2023-02-17T04:38:18.567Z,100962.66
2023-02-17T04:42:21.630Z,100972.56
2023-02-17T04:46:26.875Z,100971.53
2023-02-17T04:50:30.485Z,100970.94
2023-02-17T04:54:33.529Z,100988.59
2023-02-17T04:58:36.600Z,100980.63
2023-02-17T05:02:41.307Z,100969.66
2023-02-17T05:06:44.360Z,100966.50
2023-02-17T05:10:47.458Z,100954.50
2023-02-17T05:14:50.583Z,100958.28
2023-02-17T05:18:55.057Z,100949.44
2023-02-17T05:22:58.104Z,100948.38
2023-02-17T05:27:01.156Z,100963.75
2023-02-17T05:31:05.004Z,100964.19
2023-02-17T05:35:10.206Z,100942.91
2023-02-17T05:39:13.248Z,100949.44
2023-02-17T05:43:16.291Z,100935.09
2023-02-17T05:47:19.304Z,100951.53
2023-02-17T05:51:23.674Z,100973.88
2023-02-17T05:55:26.740Z,100972.63
2023-02-17T05:59:29.836Z,100962.72
2023-02-17T06:03:33.113Z,100970.94
2023-02-17T06:07:37.515Z,100970.75
2023-02-17T06:11:40.547Z,100969.88
2023-02-17T06:15:43.669Z,100980.19
2023-02-17T06:19:46.697Z,100971.78
2023-02-17T06:23:51.087Z,100963.75
2023-02-17T06:27:54.431Z,100962.50
2023-02-17T06:31:57.543Z,100969.47
2023-02-17T06:36:00.619Z,100969.06
2023-02-17T06:40:05.854Z,100985.28
2023-02-17T06:44:08.929Z,100976.22
2023-02-17T06:48:12.053Z,100957.03
2023-02-17T06:52:15.163Z,100962.06
2023-02-17T06:56:21.132Z,100960.38
2023-02-17T07:00:24.553Z,100964.59
2023-02-17T07:04:27.608Z,100976.78
2023-02-17T07:08:31.701Z,100970.06
2023-02-17T07:12:37.373Z,100983.31
2023-02-17T07:16:40.562Z,100974.91
2023-02-17T07:20:43.698Z,100975.53
2023-02-17T07:24:46.751Z,100972.19
2023-02-17T07:28:51.220Z,100957.03
2023-02-17T07:32:54.306Z,100974.31
2023-02-17T07:36:57.376Z,100960.81
2023-02-17T07:41:05.842Z,100980.66
2023-02-17T07:45:10.679Z,100989.50
2023-02-17T07:49:14.877Z,100968.00
2023-02-17T07:53:17.924Z,100985.72
2023-02-17T07:57:21.199Z,100979.41
2023-02-17T08:01:26.673Z,100992.06
2023-02-17T08:05:29.799Z,100976.47
2023-02-17T08:09:55.766Z,100958.97
2023-02-17T08:13:59.044Z,100973.56
2023-02-17T08:18:04.976Z,100967.66
2023-02-17T08:22:08.034Z,100970.00
2023-02-17T08:26:10.993Z,100971.47
2023-02-17T08:30:14.794Z,100972.31
2023-02-17T08:34:19.379Z,100975.69
2023-02-17T08:38:22.437Z,100986.25
2023-02-17T08:42:26.305Z,100979.47
2023-02-17T08:46:30.219Z,100972.50
2023-02-17T08:50:34.884Z,100972.53
2023-02-17T08:54:38.506Z,100984.53
2023-02-17T08:58:41.609Z,100969.78
2023-02-17T09:02:45.224Z,100976.28
2023-02-17T09:06:52.039Z,100975.25
2023-02-17T09:10:55.244Z,100991.25
2023-02-17T09:14:58.327Z,100985.34
2023-02-17T09:19:01.351Z,100973.53
2023-02-17T09:23:05.700Z,100982.38
2023-02-17T09:27:08.707Z,100967.16
2023-02-17T09:31:13.114Z,100989.50
2023-02-17T09:35:17.899Z,100992.03
2023-02-17T09:39:23.693Z,100982.28
2023-02-17T09:43:30.709Z,100985.66
2023-02-17T09:47:39.505Z,100991.75
2023-02-17T09:51:46.391Z,100970.19
2023-02-17T09:55:54.322Z,100979.91
2023-02-17T10:00:02.190Z,100975.50
2023-02-17T10:04:18.576Z,100983.91
2023-02-17T10:08:25.191Z,100987.44
2023-02-17T10:12:37.356Z,100952.75
2023-02-17T10:16:48.680Z,100994.63
2023-02-17T10:20:56.838Z,100979.63
2023-02-17T10:25:02.296Z,100975.50
2023-02-17T10:29:08.235Z,100988.06
2023-02-17T10:33:22.624Z,101001.03
2023-02-17T10:37:33.642Z,100990.88
2023-02-17T10:41:39.721Z,101017.50
2023-02-17T10:45:49.570Z,101001.94
2023-02-17T10:49:55.922Z,100999.38
2023-02-17T10:54:04.891Z,101022.13
2023-02-17T10:58:14.877Z,101025.25
2023-02-17T11:02:24.096Z,100999.56
2023-02-17T11:06:27.156Z,100987.66
2023-02-17T11:10:32.822Z,101008.34
2023-02-17T11:14:37.898Z,100991.72
2023-02-17T11:18:49.080Z,100980.03
2023-02-17T11:23:03.335Z,100969.06
2023-02-17T11:27:11.088Z,100958.66
2023-02-17T11:31:25.013Z,100920.88
2023-02-17T11:35:49.854Z,100927.28
2023-02-17T11:39:54.571Z,100925.31
2023-02-17T11:44:00.139Z,100919.94
2023-02-17T11:48:26.890Z,100927.59
2023-02-17T11:52:47.531Z,100928.50
2023-02-17T11:57:01.354Z,100909.78
2023-02-17T12:01:19.865Z,100927.59
2023-02-17T12:05:27.691Z,100922.41
2023-02-17T12:09:43.006Z,100899.00
2023-02-17T12:13:56.710Z,100892.19
2023-02-17T12:18:13.554Z,100891.31
2023-02-17T12:22:19.667Z,100857.66
2023-02-17T12:26:33.946Z,100868.97
2023-02-17T12:30:54.541Z,100879.63
2023-02-17T12:35:01.447Z,100903.53
2023-02-17T12:39:14.613Z,100893.47
2023-02-17T12:43:26.764Z,100869.66
2023-02-17T12:47:36.230Z,100873.06
2023-02-17T12:51:44.310Z,100910.00
2023-02-17T12:55:54.717Z,100883.50
2023-02-17T13:00:01.773Z,100845.19
2023-02-17T13:04:06.186Z,100891.44
2023-02-17T13:08:16.634Z,100882.97
2023-02-17T13:12:40.717Z,100890.91
2023-02-17T13:16:45.778Z,100907.06
2023-02-17T13:21:01.083Z,100897.16
2023-02-17T13:25:04.224Z,100923.41
2023-02-17T13:29:23.052Z,100914.38
2023-02-17T13:33:32.193Z,100935.69
2023-02-17T13:37:41.496Z,100913.84
2023-02-17T13:41:47.977Z,100919.75
2023-02-17T13:45:58.242Z,100935.75
2023-02-17T13:50:03.679Z,100943.50
2023-02-17T13:54:09.113Z,100924.00
2023-02-17T13:58:12.321Z,100920.34
2023-02-17T14:02:35.083Z,100925.31
2023-02-17T14:06:41.236Z,100935.94
2023-02-17T14:10:45.163Z,100954.44
2023-02-17T14:14:48.337Z,100935.47
2023-02-17T14:19:03.401Z,100970.59
2023-02-17T14:23:11.634Z,100980.03
2023-02-17T14:27:15.037Z,100982.69
2023-02-17T14:31:21.602Z,100970.44
2023-02-17T14:35:25.449Z,101008.25
2023-02-17T14:39:29.835Z,101007.69
2023-02-17T14:43:33.055Z,101014.34
2023-02-17T14:47:36.119Z,101014.47
2023-02-17T14:51:40.127Z,101019.19
2023-02-17T14:55:49.026Z,101038.06
2023-02-17T14:59:56.996Z,101060.81
2023-02-17T15:04:00.145Z,101034.84
2023-02-17T15:08:03.616Z,101041.44
2023-02-17T15:12:14.587Z,101027.94
2023-02-17T15:16:17.869Z,101041.38
2023-02-17T15:20:21.019Z,101046.06
2023-02-17T15:24:29.882Z,101057.31
2023-02-17T15:28:35.619Z,101055.25
2023-02-17T15:32:38.785Z,101078.13
2023-02-17T15:36:41.898Z,101090.84
2023-02-17T15:40:45.017Z,101102.72
2023-02-17T15:44:51.014Z,101126.38
2023-02-17T15:48:54.137Z,101122.34
2023-02-17T15:52:57.687Z,101136.75
2023-02-17T15:57:01.384Z,101175.44
2023-02-17T16:01:06.293Z,101159.78
2023-02-17T16:05:11.896Z,101176.44
2023-02-17T16:09:15.179Z,101174.91
2023-02-17T16:13:19.629Z,101168.97
2023-02-17T16:17:24.229Z,101188.38
2023-02-17T16:21:27.426Z,101187.53
2023-02-17T16:25:31.082Z,101187.72
2023-02-17T16:29:34.222Z,101182.03
2023-02-17T16:33:38.620Z,101195.13
2023-02-17T16:37:41.983Z,101187.94
2023-02-17T16:41:45.661Z,101191.97
2023-02-17T16:45:52.916Z,101177.38
2023-02-17T16:49:57.560Z,101197.44
2023-02-17T16:54:00.568Z,101181.19
2023-02-17T16:58:04.242Z,101202.72
2023-02-17T17:02:07.680Z,101212.03
2023-02-17T17:06:20.339Z,101230.63
2023-02-17T17:10:26.123Z,101201.06
2023-02-17T17:14:29.204Z,101216.06
2023-02-17T17:18:32.309Z,101211.66
2023-02-17T17:22:36.818Z,101215.44
2023-02-17T17:26:43.968Z,101231.91
2023-02-17T17:30:47.750Z,101245.84
2023-02-17T17:34:52.081Z,101249.22
2023-02-17T17:38:57.732Z,101246.03
2023-02-17T17:43:01.087Z,101256.38
2023-02-17T17:47:04.569Z,101256.38
2023-02-17T17:51:07.798Z,101261.44
2023-02-17T17:55:12.245Z,101265.66
2023-02-17T17:59:15.763Z,101281.69
2023-02-17T18:03:18.913Z,101287.41
2023-02-17T18:07:22.162Z,101291.19
2023-02-17T18:11:26.595Z,101290.97
2023-02-17T18:15:30.253Z,101297.94
2023-02-17T18:19:33.946Z,101316.31
2023-02-17T18:23:37.703Z,101317.13
2023-02-17T18:27:44.441Z,101328.50
2023-02-17T18:31:47.708Z,101334.41
2023-02-17T18:35:50.838Z,101335.69
2023-02-17T18:39:53.973Z,101340.28
2023-02-17T18:43:59.989Z,101353.41
2023-02-17T18:48:03.301Z,101357.59
2023-02-17T18:52:07.527Z,101362.44
2023-02-17T18:56:11.791Z,101352.50
2023-02-17T19:00:18.872Z,101373.16
2023-02-17T19:04:21.937Z,101368.72
2023-02-17T19:08:25.044Z,101368.06
2023-02-17T19:12:28.329Z,101361.72
2023-02-17T19:16:33.883Z,101355.34
2023-02-17T19:20:36.924Z,101358.31
2023-02-17T19:24:41.410Z,101365.22
2023-02-17T19:28:45.267Z,101375.56
2023-02-17T19:32:49.670Z,101365.81
2023-02-17T19:36:53.334Z,101366.69
2023-02-17T19:40:56.369Z,101381.44
2023-02-17T19:44:59.416Z,101386.53
2023-02-17T19:49:04.671Z,101380.38
2023-02-17T19:53:07.723Z,101385.22
2023-02-17T19:57:10.800Z,101383.88
2023-02-17T20:01:16.420Z,101388.72
2023-02-17T20:05:20.878Z,101392.50
2023-02-17T20:09:24.579Z,101402.44
2023-02-17T20:13:30.440Z,101402.19
2023-02-17T20:17:37.904Z,101410.41
2023-02-17T20:21:44.927Z,101404.91
2023-02-17T20:25:48.143Z,101406.19
2023-02-17T20:29:51.271Z,101398.13
2023-02-17T20:33:54.690Z,101393.03
2023-02-17T20:37:59.148Z,101405.28
2023-02-17T20:42:02.892Z,101409.06
2023-02-17T20:46:06.771Z,101411.97
2023-02-17T20:50:13.931Z,101411.78
2023-02-17T20:54:18.617Z,101419.53
2023-02-17T20:58:22.291Z,101416.53
2023-02-17T21:02:25.465Z,101426.84
2023-02-17T21:06:30.632Z,101418.63
2023-02-17T21:10:35.133Z,101421.75
2023-02-17T21:14:38.212Z,101420.28
2023-02-17T21:18:41.332Z,101429.34
2023-02-17T21:22:44.603Z,101430.38
2023-02-17T21:26:49.012Z,101430.38
2023-02-17T21:30:52.054Z,101417.72
2023-02-17T21:34:55.197Z,101422.16
2023-02-17T21:38:59.107Z,101424.06
2023-02-17T21:43:20.832Z,101436.72
2023-02-17T21:47:23.831Z,101432.47
2023-02-17T21:51:27.016Z,101418.97
2023-02-17T21:55:30.012Z,101429.94
2023-02-17T21:59:34.395Z,101417.94
2023-02-17T22:03:37.435Z,101404.41
2023-02-17T22:07:40.521Z,101426.16
2023-02-17T22:11:44.066Z,101424.44
2023-02-17T22:15:58.318Z,101410.94
2023-02-17T22:20:01.422Z,101415.75
2023-02-17T22:24:04.677Z,101415.97
2023-02-17T22:28:10.159Z,101416.78
2023-02-17T22:32:15.087Z,101407.09
2023-02-17T22:36:20.361Z,101400.75
2023-02-17T22:40:23.410Z,101408.34
2023-02-17T22:44:26.449Z,101404.97
2023-02-17T22:48:31.869Z,101419.69
2023-02-17T22:52:35.384Z,101408.75
2023-02-17T22:56:38.586Z,101415.91
2023-02-17T23:00:41.592Z,101408.75
2023-02-17T23:04:49.142Z,101403.03
2023-02-17T23:08:53.976Z,101397.78
2023-02-17T23:12:57.019Z,101408.34
2023-02-17T23:17:01.782Z,101410.00
2023-02-17T23:21:11.362Z,101401.16
2023-02-17T23:25:14.479Z,101401.16
2023-02-17T23:29:18.408Z,101385.56
2023-02-17T23:33:23.590Z,101391.50
2023-02-17T23:37:27.963Z,101387.72
2023-02-17T23:41:30.951Z,101403.09
2023-02-17T23:45:34.847Z,101389.78
2023-02-17T23:49:37.828Z,101391.50
2023-02-17T23:53:42.182Z,101387.06
2023-02-17T23:57:45.231Z,101406.22
